createdAt,value
2023-02-21T00:00:51.967Z,98325.14
2023-02-21T00:06:17.836Z,98324.16
2023-02-21T00:11:40.166Z,98322.27
2023-02-21T00:17:02.623Z,98324.10
2023-02-21T00:22:24.878Z,98324.77
2023-02-21T00:27:47.238Z,98322.41
2023-02-21T00:33:09.590Z,98318.91
2023-02-21T00:38:32.253Z,98319.11
2023-02-21T00:43:55.136Z,98329.71
2023-02-21T00:49:17.379Z,98339.13
2023-02-21T00:54:39.753Z,98328.11
2023-02-21T01:00:01.998Z,98332.45
2023-02-21T01:05:24.759Z,98329.92
2023-02-21T01:10:47.534Z,98325.33
2023-02-21T01:16:09.903Z,98319.91
2023-02-21T01:21:33.573Z,98316.56
2023-02-21T01:26:56.035Z,98299.41
2023-02-21T01:32:18.552Z,98311.23
2023-02-21T01:37:40.628Z,98315.52
2023-02-21T01:43:02.810Z,98308.20
2023-02-21T01:48:26.284Z,98314.48
2023-02-21T01:53:48.542Z,98315.17
2023-02-21T01:59:14.273Z,98307.27
2023-02-21T02:04:36.446Z,98308.73
2023-02-21T02:09:58.784Z,98300.98
2023-02-21T02:15:20.429Z,98307.36
2023-02-21T02:20:48.003Z,98298.70
2023-02-21T02:25:57.256Z,98284.66
2023-02-21T02:31:57.578Z,98292.61
2023-02-21T02:37:23.648Z,98289.39
2023-02-21T02:42:53.281Z,98295.28
2023-02-21T02:48:08.769Z,98293.80
2023-02-21T02:53:12.384Z,98294.80
2023-02-21T02:58:17.435Z,98291.55
2023-02-21T03:03:23.626Z,98295.36
2023-02-21T03:08:30.917Z,98285.50
2023-02-21T03:13:59.011Z,98293.61
2023-02-21T03:19:05.183Z,98299.92
2023-02-21T03:24:11.036Z,98298.58
2023-02-21T03:29:16.825Z,98297.98
2023-02-21T03:34:20.342Z,98304.23
2023-02-21T03:39:23.857Z,98309.76
2023-02-21T03:44:27.473Z,98317.55
2023-02-21T03:49:30.987Z,98323.77
2023-02-21T03:54:34.606Z,98323.03
2023-02-21T03:59:38.231Z,98332.91
2023-02-21T04:04:41.846Z,98348.17
2023-02-21T04:09:45.771Z,98346.36
2023-02-21T04:14:49.184Z,98340.46
2023-02-21T04:19:53.110Z,98338.45
2023-02-21T04:24:57.035Z,98347.60
2023-02-21T04:30:00.960Z,98346.19
2023-02-21T04:35:04.683Z,98331.87
2023-02-21T04:40:09.017Z,98341.89
2023-02-21T04:45:12.736Z,98355.30
2023-02-21T04:50:16.476Z,98356.12
2023-02-21T04:55:19.877Z,98345.02
2023-02-21T05:00:24.102Z,98344.77
2023-02-21T05:05:27.624Z,98341.59
2023-02-21T05:10:44.669Z,98344.63
2023-02-21T05:15:49.501Z,98343.64
2023-02-21T05:20:52.908Z,98344.06
2023-02-21T05:25:56.422Z,98332.48
2023-02-21T05:31:01.144Z,98330.78
2023-02-21T05:36:05.196Z,98331.71
2023-02-21T05:41:08.561Z,98335.04
2023-02-21T05:46:29.052Z,98351.71
2023-02-21T05:51:42.581Z,98355.06
2023-02-21T05:56:48.018Z,98370.67
2023-02-21T06:01:51.544Z,98370.58
2023-02-21T06:06:54.957Z,98393.70
2023-02-21T06:11:58.787Z,98398.39
2023-02-21T06:17:03.115Z,98408.94
2023-02-21T06:22:06.296Z,98424.40
2023-02-21T06:27:09.733Z,98424.31
2023-02-21T06:32:13.297Z,98424.75
2023-02-21T06:37:19.044Z,98434.05
2023-02-21T06:42:23.121Z,98441.56
2023-02-21T06:47:26.516Z,98447.60
2023-02-21T06:52:32.133Z,98460.02
2023-02-21T06:57:35.647Z,98467.27
2023-02-21T07:02:39.676Z,98483.81
2023-02-21T07:07:43.702Z,98490.69
2023-02-21T07:12:47.120Z,98507.71
2023-02-21T07:17:51.881Z,98512.63
2023-02-21T07:22:55.277Z,98527.61
2023-02-21T07:27:59.220Z,98537.49
2023-02-21T07:33:02.706Z,98541.97
2023-02-21T07:38:06.231Z,98547.07
2023-02-21T07:43:09.744Z,98552.85
2023-02-21T07:48:16.437Z,98555.55
2023-02-21T07:53:20.050Z,98572.27
2023-02-21T07:58:23.570Z,98575.98
2023-02-21T08:03:27.389Z,98582.52
2023-02-21T08:08:31.007Z,98595.20
2023-02-21T08:13:34.417Z,98596.24
2023-02-21T08:18:37.877Z,98604.64
2023-02-21T08:23:41.349Z,98614.11
2023-02-21T08:28:44.968Z,98615.98
2023-02-21T08:33:48.481Z,98629.03
2023-02-21T08:38:51.888Z,98639.35
2023-02-21T08:43:55.404Z,98639.47
2023-02-21T08:48:58.925Z,98652.19
2023-02-21T08:54:03.594Z,98658.27
2023-02-21T08:59:09.680Z,98667.77
2023-02-21T09:04:13.262Z,98680.64
2023-02-21T09:09:16.772Z,98687.47
2023-02-21T09:14:20.391Z,98695.19
2023-02-21T09:19:24.110Z,98692.77
2023-02-21T09:24:28.247Z,98710.48
2023-02-21T09:29:45.376Z,98713.49
2023-02-21T09:34:49.711Z,98728.11
2023-02-21T09:39:54.048Z,98728.31
2023-02-21T09:44:57.870Z,98739.54
2023-02-21T09:50:06.608Z,98744.69
2023-02-21T09:55:40.741Z,98753.39
2023-02-21T10:00:46.752Z,98770.25
2023-02-21T10:06:04.411Z,98773.89
2023-02-21T10:11:28.048Z,98779.89
2023-02-21T10:16:44.600Z,98788.45
2023-02-21T10:21:49.880Z,98794.35
2023-02-21T10:27:07.674Z,98807.96
2023-02-21T10:32:11.305Z,98809.15
2023-02-21T10:37:42.269Z,98808.36
2023-02-21T10:42:55.089Z,98818.44
2023-02-21T10:48:07.842Z,98827.19
2023-02-21T10:53:26.090Z,98836.23
2023-02-21T10:58:31.137Z,98844.75
2023-02-21T11:03:34.648Z,98850.02
2023-02-21T11:08:43.997Z,98860.54
2023-02-21T11:13:47.516Z,98867.33
2023-02-21T11:19:08.032Z,98869.51
2023-02-21T11:24:12.576Z,98877.38
2023-02-21T11:29:21.519Z,98890.48
2023-02-21T11:34:32.399Z,98892.42
2023-02-21T11:39:35.916Z,98900.89
2023-02-21T11:44:41.069Z,98906.77
2023-02-21T11:50:01.707Z,98905.05
2023-02-21T11:55:14.420Z,98917.96
2023-02-21T12:00:26.228Z,98916.55
2023-02-21T12:05:42.990Z,98919.13
2023-02-21T12:10:55.272Z,98929.11
2023-02-21T12:16:14.067Z,98940.53
2023-02-21T12:21:36.210Z,98931.08
2023-02-21T12:26:51.382Z,98931.11
2023-02-21T12:32:35.043Z,98936.33
2023-02-21T12:37:44.194Z,98949.34
2023-02-21T12:43:01.945Z,98953.10
2023-02-21T12:48:19.091Z,98946.92
2023-02-21T12:53:29.866Z,98949.05
2023-02-21T12:58:43.520Z,98960.18
2023-02-21T13:04:11.505Z,98962.40
2023-02-21T13:09:38.266Z,98970.10
2023-02-21T13:14:50.909Z,98976.01
2023-02-21T13:20:02.093Z,98979.70
2023-02-21T13:25:21.166Z,98986.43
2023-02-21T13:30:36.457Z,98983.91
2023-02-21T13:35:41.219Z,99000.38
2023-02-21T13:40:53.536Z,99006.60
2023-02-21T13:46:32.215Z,99012.93
2023-02-21T13:51:56.470Z,99019.27
2023-02-21T13:57:04.093Z,99028.19
2023-02-21T14:02:20.806Z,99038.84
2023-02-21T14:08:04.286Z,99039.80
2023-02-21T14:13:27.741Z,99052.84
2023-02-21T14:18:40.311Z,99057.82
2023-02-21T14:23:50.921Z,99062.11
2023-02-21T14:28:56.928Z,99072.58
2023-02-21T14:34:00.952Z,99074.14
2023-02-21T14:39:05.490Z,99075.42
2023-02-21T14:44:35.735Z,99084.47
2023-02-21T14:49:54.407Z,99089.09
2023-02-21T14:55:15.841Z,99091.80
2023-02-21T15:00:28.981Z,99104.61
2023-02-21T15:05:42.834Z,99100.89
2023-02-21T15:10:49.096Z,99115.51
2023-02-21T15:16:14.093Z,99117.66
2023-02-21T15:21:20.537Z,99125.88
2023-02-21T15:26:27.630Z,99128.39
2023-02-21T15:31:53.094Z,99132.48
2023-02-21T15:37:25.851Z,99130.02
2023-02-21T15:42:29.895Z,99135.98
2023-02-21T15:47:35.743Z,99146.20
2023-02-21T15:52:46.554Z,99150.55
2023-02-21T15:58:27.365Z,99159.73
2023-02-21T16:03:42.611Z,99164.81
2023-02-21T16:09:02.259Z,99185.90
2023-02-21T16:14:06.331Z,99206.09
2023-02-21T16:19:10.566Z,99216.85
2023-02-21T16:24:32.000Z,99225.73
2023-02-21T16:29:35.826Z,99236.80
2023-02-21T16:34:39.235Z,99256.30
2023-02-21T16:39:43.478Z,99250.63
2023-02-21T16:44:48.628Z,99269.45
2023-02-21T16:49:52.446Z,99279.97
2023-02-21T16:54:56.104Z,99284.16
2023-02-21T16:59:59.581Z,99289.60
2023-02-21T17:05:03.002Z,99290.55
2023-02-21T17:10:07.168Z,99300.51
2023-02-21T17:15:14.018Z,99312.71
2023-02-21T17:20:19.388Z,99307.81
2023-02-21T17:25:23.404Z,99321.33
2023-02-21T17:30:27.164Z,99331.09
2023-02-21T17:35:30.709Z,99342.55
2023-02-21T17:40:34.470Z,99356.88
2023-02-21T17:45:38.079Z,99356.08
2023-02-21T17:50:41.402Z,99361.31
2023-02-21T17:55:44.907Z,99370.45
2023-02-21T18:00:48.420Z,99374.16
2023-02-21T18:05:52.144Z,99376.27
2023-02-21T18:10:55.562Z,99393.38
2023-02-21T18:16:01.680Z,99397.83
2023-02-21T18:21:06.173Z,99406.09
2023-02-21T18:26:09.896Z,99410.36
2023-02-21T18:31:19.319Z,99416.00
2023-02-21T18:36:23.240Z,99422.59
2023-02-21T18:41:26.903Z,99433.31
2023-02-21T18:46:30.747Z,99441.64
2023-02-21T18:51:36.796Z,99449.27
2023-02-21T18:56:46.385Z,99451.78
2023-02-21T19:01:51.814Z,99451.05
2023-02-21T19:06:55.229Z,99459.80
2023-02-21T19:11:58.836Z,99472.38
2023-02-21T19:17:02.359Z,99475.80
2023-02-21T19:22:05.903Z,99482.41
2023-02-21T19:27:10.167Z,99487.73
2023-02-21T19:32:14.498Z,99493.77
2023-02-21T19:37:18.838Z,99495.23
2023-02-21T19:42:22.394Z,99513.85
2023-02-21T19:47:27.798Z,99514.88
2023-02-21T19:52:33.033Z,99526.16
2023-02-21T19:57:36.619Z,99536.99
2023-02-21T20:02:40.656Z,99548.85
2023-02-21T20:07:44.312Z,99560.39
2023-02-21T20:12:47.889Z,99556.72
2023-02-21T20:17:53.672Z,99560.70
2023-02-21T20:22:58.336Z,99564.30
2023-02-21T20:28:03.349Z,99569.55
2023-02-21T20:33:16.291Z,99577.84
2023-02-21T20:38:23.587Z,99582.70
2023-02-21T20:43:27.621Z,99586.40
2023-02-21T20:48:32.875Z,99593.67
2023-02-21T20:53:37.008Z,99603.74
2023-02-21T20:58:40.929Z,99601.37
2023-02-21T21:03:44.339Z,99605.52
2023-02-21T21:08:48.060Z,99619.62
2023-02-21T21:13:52.607Z,99630.29
2023-02-21T21:18:57.669Z,99631.54
2023-02-21T21:24:01.064Z,99638.02
2023-02-21T21:29:09.288Z,99644.33
2023-02-21T21:34:13.012Z,99652.58
2023-02-21T21:39:17.035Z,99655.59
2023-02-21T21:44:23.356Z,99664.00
2023-02-21T21:49:28.056Z,99664.40
2023-02-21T21:54:36.318Z,99671.95
2023-02-21T21:59:43.286Z,99675.18
2023-02-21T22:04:48.340Z,99690.52
2023-02-21T22:09:51.958Z,99704.69
2023-02-21T22:14:57.722Z,99707.60
2023-02-21T22:20:01.156Z,99715.17
2023-02-21T22:25:04.961Z,99722.27
2023-02-21T22:30:09.521Z,99726.89
2023-02-21T22:35:18.638Z,99736.05
2023-02-21T22:40:25.475Z,99741.05
2023-02-21T22:45:33.542Z,99747.80
2023-02-21T22:50:37.897Z,99750.68
2023-02-21T22:55:41.401Z,99747.19
2023-02-21T23:00:45.022Z,99757.48
2023-02-21T23:05:50.684Z,99757.61
2023-02-21T23:10:54.099Z,99764.10
2023-02-21T23:15:58.377Z,99771.40
2023-02-21T23:21:04.953Z,99778.06
2023-02-21T23:26:08.952Z,99782.02
2023-02-21T23:31:14.506Z,99797.91
2023-02-21T23:36:23.009Z,99806.77
2023-02-21T23:41:29.433Z,99807.09
2023-02-21T23:46:33.227Z,99819.17
2023-02-21T23:51:42.565Z,99824.55
2023-02-21T23:56:47.973Z,99835.02
